East Wallingford, VT (05742)

1:05 AM EDT on October 26, 2014 (GMT -0400)
Sugar Hill | Change Station
CLOSE
Current Station
Personal Weather Station
Location: East Wallingford, VT
Elevation: 1650 ft
Nearby Weather Stations

Elev 1650 ft 43.44 °N, 72.89 °W | Updated 30 seconds ago

Mostly Cloudy
Mostly Cloudy
49.7 °F
Feels Like 49 °F
N
3.5
Wind Variable Wind from WSW
Gusts 3.5 mph

Today
High -- | Low -- °F
--% Chance of Precip.
Yesterday
High -- | Low -- °F
Precip. -- in
7:19 AM 5:51 PM
Waxing Crescent, 6% visible
Pressure 29.48 in
Visibility 10.0 miles
Clouds Few 4500 ft
Overcast 6000 ft
Windchill 49 °F
Dew Point 44 °F
Humidity 80%
Rainfall 0.00 in
Snow Depth Not available.
UV 0.0 out of 12
Pollen .20 out of 12
Ozone Good
PM2.5 Good
Flu Activity Sporadic
METAR KRUT 260455Z 00000KT 10SM FEW045 OVC060 09/07 A2948 RMK AO1

More Conditions Fewer Conditions

Pressure 29.48 in
Visibility 10.0 miles
Clouds Few 4500 ft
Overcast 6000 ft
Windchill 49 °F
Dew Point 44 °F
Humidity 80%
Rainfall 0.00 in
Snow Depth Not available.
UV 0.0 out of 12
Pollen .20 out of 12
Ozone Good
PM2.5 Good
Flu Activity Sporadic
METAR KRUT 260455Z 00000KT 10SM FEW045 OVC060 09/07 A2948 RMK AO1

More Conditions Fewer Conditions

10-Day Weather Forecast

Almanac

Astronomy

Oct. 26, 2014 Rise Set
Actual Time 7:19 AM EDT 5:51 PM EDT
Civil Twilight 6:49 AM EDT 6:20 PM EDT
Nautical Twilight 6:16 AM EDT 6:53 PM EDT
Astronomical Twilight 5:43 AM EDT 7:27 PM EDT
Moon 9:57 AM EDT 7:57 PM EDT
Length of Visible Light 11h 30m
Length of Day
10h 32m
Tomorrow will be 2m 44s shorter.
Waxing Crescent, 6% of the Moon is Illuminated
Today
Waxing Crescent
Oct 30
First Quarter
Nov 6
Full
Nov 14
Last Quarter
Nov 22
New

Today's Extremes

State Highs State Lows

Community

WunderPhotos

Upload Photos

1,765,111 photos uploaded!

Nearby

Air Quality

  Air Quality AQ Index Pollutant
Yesterday Good
OZONE
Current Good
PM2.5
Current Good
OZONE
Saturday Good
PM2.5
Sunday Good
PM2.5
Monday Good
PM2.5

Snow Depth

Station Depth Elevation
No new snow has been reported.

Earthquake Activity

City Distance Mag. Time & Date
No recent earthquake activity has been reported nearby.
Minimum magnitude displayed is 2.5.

Coastal Water Temperatures

Place Temperature
No Stations Reporting

Nearby Weather Stations